sensor_id;sensor_type;location;lat;lon;timestamp;pressure;altitude;pressure_sealevel;temperature
65765;BMP180;52915;53.718;19.946;2022-09-09T00:05:14;100261.00;;;14.90
65765;BMP180;52915;53.718;19.946;2022-09-09T00:10:37;100250.80;;;14.90
65765;BMP180;52915;53.718;19.946;2022-09-09T00:16:03;100259.40;;;14.90
65765;BMP180;52915;53.718;19.946;2022-09-09T00:21:15;100242.00;;;14.80
65765;BMP180;52915;53.718;19.946;2022-09-09T00:26:38;100240.20;;;14.80
65765;BMP180;52915;53.718;19.946;2022-09-09T00:31:44;100228.60;;;14.76
65765;BMP180;52915;53.718;19.946;2022-09-09T00:36:51;100232.60;;;14.76
65765;BMP180;52915;53.718;19.946;2022-09-09T00:42:23;100224.20;;;14.70
65765;BMP180;52915;53.718;19.946;2022-09-09T00:47:46;100219.20;;;14.70
65765;BMP180;52915;53.718;19.946;2022-09-09T00:53:24;100217.40;;;14.70
65765;BMP180;52915;53.718;19.946;2022-09-09T00:58:31;100212.60;;;14.60
65765;BMP180;52915;53.718;19.946;2022-09-09T01:04:10;100215.60;;;14.60
65765;BMP180;52915;53.718;19.946;2022-09-09T01:14:48;100215.20;;;14.50
65765;BMP180;52915;53.718;19.946;2022-09-09T01:20:22;100217.00;;;14.50
65765;BMP180;52915;53.718;19.946;2022-09-09T01:31:09;100220.40;;;14.40
65765;BMP180;52915;53.718;19.946;2022-09-09T01:37:05;100218.80;;;14.40
65765;BMP180;52915;53.718;19.946;2022-09-09T01:42:15;100223.80;;;14.36
65765;BMP180;52915;53.718;19.946;2022-09-09T01:47:20;100222.80;;;14.30
65765;BMP180;52915;53.718;19.946;2022-09-09T01:52:24;100227.00;;;14.30
65765;BMP180;52915;53.718;19.946;2022-09-09T01:57:44;100220.60;;;14.20
65765;BMP180;52915;53.718;19.946;2022-09-09T02:08:42;100228.20;;;14.14
65765;BMP180;52915;53.718;19.946;2022-09-09T02:13:54;100233.00;;;14.10
65765;BMP180;52915;53.718;19.946;2022-09-09T02:19:19;100231.80;;;14.10
65765;BMP180;52915;53.718;19.946;2022-09-09T02:24:33;100230.80;;;14.10
65765;BMP180;52915;53.718;19.946;2022-09-09T02:29:42;100236.60;;;14.10
65765;BMP180;52915;53.718;19.946;2022-09-09T02:35:10;100236.20;;;14.02
65765;BMP180;52915;53.718;19.946;2022-09-09T02:40:16;100244.00;;;14.00
65765;BMP180;52915;53.718;19.946;2022-09-09T02:45:25;100244.00;;;14.00
65765;BMP180;52915;53.718;19.946;2022-09-09T02:50:35;100241.00;;;13.90
65765;BMP180;52915;53.718;19.946;2022-09-09T02:55:48;100244.60;;;13.70
65765;BMP180;52915;53.718;19.946;2022-09-09T03:00:56;100246.60;;;13.60
65765;BMP180;52915;53.718;19.946;2022-09-09T03:06:01;100245.00;;;13.40
65765;BMP180;52915;53.718;19.946;2022-09-09T03:11:07;100249.60;;;13.30
65765;BMP180;52915;53.718;19.946;2022-09-09T03:16:31;100263.20;;;13.20
65765;BMP180;52915;53.718;19.946;2022-09-09T03:21:37;100260.40;;;13.20
65765;BMP180;52915;53.718;19.946;2022-09-09T03:26:42;100256.80;;;13.00
65765;BMP180;52915;53.718;19.946;2022-09-09T03:31:48;100258.40;;;12.90
65765;BMP180;52915;53.718;19.946;2022-09-09T03:36:52;100253.40;;;12.80
65765;BMP180;52915;53.718;19.946;2022-09-09T03:41:56;100248.80;;;12.70
65765;BMP180;52915;53.718;19.946;2022-09-09T03:47:00;100247.80;;;12.60
65765;BMP180;52915;53.718;19.946;2022-09-09T03:52:04;100261.20;;;12.60
65765;BMP180;52915;53.718;19.946;2022-09-09T03:57:11;100258.00;;;12.50
65765;BMP180;52915;53.718;19.946;2022-09-09T04:02:17;100265.00;;;12.40
65765;BMP180;52915;53.718;19.946;2022-09-09T04:07:21;100263.00;;;12.40
65765;BMP180;52915;53.718;19.946;2022-09-09T04:12:24;100269.40;;;12.20
65765;BMP180;52915;53.718;19.946;2022-09-09T04:17:28;100260.60;;;12.10
65765;BMP180;52915;53.718;19.946;2022-09-09T04:22:32;100254.80;;;12.00
65765;BMP180;52915;53.718;19.946;2022-09-09T04:27:37;100255.80;;;11.90
65765;BMP180;52915;53.718;19.946;2022-09-09T04:32:41;100262.60;;;11.90
65765;BMP180;52915;53.718;19.946;2022-09-09T04:37:46;100257.40;;;11.90
65765;BMP180;52915;53.718;19.946;2022-09-09T04:42:50;100258.00;;;11.80
65765;BMP180;52915;53.718;19.946;2022-09-09T04:47:54;100256.20;;;11.80
65765;BMP180;52915;53.718;19.946;2022-09-09T04:53:03;100249.40;;;11.90
65765;BMP180;52915;53.718;19.946;2022-09-09T04:58:08;100252.60;;;11.90
65765;BMP180;52915;53.718;19.946;2022-09-09T05:03:12;100256.40;;;11.72
65765;BMP180;52915;53.718;19.946;2022-09-09T05:08:16;100262.00;;;11.60
65765;BMP180;52915;53.718;19.946;2022-09-09T05:13:21;100264.40;;;11.52
65765;BMP180;52915;53.718;19.946;2022-09-09T05:18:26;100267.20;;;11.32
65765;BMP180;52915;53.718;19.946;2022-09-09T05:23:31;100272.60;;;11.40
65765;BMP180;52915;53.718;19.946;2022-09-09T05:28:35;100270.80;;;11.30
65765;BMP180;52915;53.718;19.946;2022-09-09T05:33:42;100277.80;;;11.20
65765;BMP180;52915;53.718;19.946;2022-09-09T05:38:47;100271.20;;;11.26
65765;BMP180;52915;53.718;19.946;2022-09-09T05:43:52;100274.80;;;11.10
65765;BMP180;52915;53.718;19.946;2022-09-09T05:48:56;100271.80;;;11.18
65765;BMP180;52915;53.718;19.946;2022-09-09T05:54:02;100274.60;;;11.20
65765;BMP180;52915;53.718;19.946;2022-09-09T05:59:06;100279.00;;;11.10
65765;BMP180;52915;53.718;19.946;2022-09-09T06:04:11;100275.60;;;11.12
65765;BMP180;52915;53.718;19.946;2022-09-09T06:09:16;100279.00;;;11.16
65765;BMP180;52915;53.718;19.946;2022-09-09T06:14:20;100280.00;;;11.10
65765;BMP180;52915;53.718;19.946;2022-09-09T06:19:25;100283.60;;;11.20
65765;BMP180;52915;53.718;19.946;2022-09-09T06:24:30;100286.40;;;11.28
65765;BMP180;52915;53.718;19.946;2022-09-09T06:29:36;100287.00;;;11.20
65765;BMP180;52915;53.718;19.946;2022-09-09T06:34:40;100285.80;;;11.30
65765;BMP180;52915;53.718;19.946;2022-09-09T06:39:44;100286.80;;;11.30
65765;BMP180;52915;53.718;19.946;2022-09-09T06:44:49;100286.40;;;11.30
65765;BMP180;52915;53.718;19.946;2022-09-09T06:49:53;100291.80;;;11.30
65765;BMP180;52915;53.718;19.946;2022-09-09T06:54:56;100296.20;;;11.20
65765;BMP180;52915;53.718;19.946;2022-09-09T07:00:03;100298.80;;;11.24
65765;BMP180;52915;53.718;19.946;2022-09-09T07:05:08;100299.00;;;11.30
65765;BMP180;52915;53.718;19.946;2022-09-09T07:10:13;100301.60;;;11.28
65765;BMP180;52915;53.718;19.946;2022-09-09T07:15:17;100304.60;;;11.40
65765;BMP180;52915;53.718;19.946;2022-09-09T07:20:22;100307.20;;;11.20
65765;BMP180;52915;53.718;19.946;2022-09-09T07:25:26;100315.00;;;11.20
65765;BMP180;52915;53.718;19.946;2022-09-09T07:30:32;100311.40;;;11.20
65765;BMP180;52915;53.718;19.946;2022-09-09T07:35:36;100316.00;;;11.30
65765;BMP180;52915;53.718;19.946;2022-09-09T07:40:43;100324.80;;;11.30
65765;BMP180;52915;53.718;19.946;2022-09-09T07:45:47;100325.60;;;11.40
65765;BMP180;52915;53.718;19.946;2022-09-09T07:50:51;100321.80;;;11.40
65765;BMP180;52915;53.718;19.946;2022-09-09T07:56:08;100320.20;;;11.40
65765;BMP180;52915;53.718;19.946;2022-09-09T08:01:21;100318.80;;;11.50
65765;BMP180;52915;53.718;19.946;2022-09-09T08:06:33;100326.40;;;11.60
65765;BMP180;52915;53.718;19.946;2022-09-09T08:11:39;100339.40;;;11.60
65765;BMP180;52915;53.718;19.946;2022-09-09T08:16:48;100337.00;;;11.60
65765;BMP180;52915;53.718;19.946;2022-09-09T08:21:52;100333.20;;;11.80
65765;BMP180;52915;53.718;19.946;2022-09-09T08:26:56;100331.20;;;11.80
65765;BMP180;52915;53.718;19.946;2022-09-09T08:32:00;100325.80;;;11.90
65765;BMP180;52915;53.718;19.946;2022-09-09T08:37:05;100323.40;;;12.10
65765;BMP180;52915;53.718;19.946;2022-09-09T08:42:24;100326.40;;;12.20
65765;BMP180;52915;53.718;19.946;2022-09-09T08:48:29;100328.00;;;12.20
65765;BMP180;52915;53.718;19.946;2022-09-09T08:53:46;100337.20;;;12.10
65765;BMP180;52915;53.718;19.946;2022-09-09T08:58:54;100337.40;;;12.10
65765;BMP180;52915;53.718;19.946;2022-09-09T09:10:15;100355.20;;;11.90
65765;BMP180;52915;53.718;19.946;2022-09-09T09:15:45;100354.60;;;12.00
65765;BMP180;52915;53.718;19.946;2022-09-09T09:26:10;100363.40;;;12.00
65765;BMP180;52915;53.718;19.946;2022-09-09T09:31:15;100365.60;;;12.10
65765;BMP180;52915;53.718;19.946;2022-09-09T09:36:33;100365.80;;;12.20
65765;BMP180;52915;53.718;19.946;2022-09-09T09:41:43;100369.20;;;12.10
65765;BMP180;52915;53.718;19.946;2022-09-09T09:46:47;100369.80;;;12.30
65765;BMP180;52915;53.718;19.946;2022-09-09T09:51:51;100370.40;;;12.20
65765;BMP180;52915;53.718;19.946;2022-09-09T09:57:14;100369.20;;;12.30
65765;BMP180;52915;53.718;19.946;2022-09-09T10:02:25;100371.20;;;12.30
65765;BMP180;52915;53.718;19.946;2022-09-09T10:07:30;100371.20;;;12.40
65765;BMP180;52915;53.718;19.946;2022-09-09T10:13:15;100369.20;;;12.40
65765;BMP180;52915;53.718;19.946;2022-09-09T10:30:19;100372.20;;;12.72
65765;BMP180;52915;53.718;19.946;2022-09-09T10:35:34;100380.80;;;12.90
65765;BMP180;52915;53.718;19.946;2022-09-09T10:52:04;100385.20;;;13.00
65765;BMP180;52915;53.718;19.946;2022-09-09T10:57:31;100391.40;;;12.90
65765;BMP180;52915;53.718;19.946;2022-09-09T11:02:38;100386.20;;;12.90
65765;BMP180;52915;53.718;19.946;2022-09-09T11:07:58;100388.60;;;12.92
65765;BMP180;52915;53.718;19.946;2022-09-09T11:13:13;100387.60;;;12.90
65765;BMP180;52915;53.718;19.946;2022-09-09T11:18:21;100395.80;;;13.00
65765;BMP180;52915;53.718;19.946;2022-09-09T11:23:59;100404.80;;;13.00
65765;BMP180;52915;53.718;19.946;2022-09-09T11:30:05;100409.80;;;12.94
65765;BMP180;52915;53.718;19.946;2022-09-09T11:41:37;100408.40;;;12.90
65765;BMP180;52915;53.718;19.946;2022-09-09T11:46:42;100409.80;;;12.80
65765;BMP180;52915;53.718;19.946;2022-09-09T11:51:48;100410.40;;;12.90
65765;BMP180;52915;53.718;19.946;2022-09-09T11:56:56;100414.20;;;13.00
65765;BMP180;52915;53.718;19.946;2022-09-09T12:02:23;100420.40;;;12.90
65765;BMP180;52915;53.718;19.946;2022-09-09T12:07:41;100416.00;;;12.96
65765;BMP180;52915;53.718;19.946;2022-09-09T12:12:50;100414.00;;;13.00
65765;BMP180;52915;53.718;19.946;2022-09-09T12:17:58;100412.60;;;13.00
65765;BMP180;52915;53.718;19.946;2022-09-09T12:28:55;100415.00;;;13.10
65765;BMP180;52915;53.718;19.946;2022-09-09T12:39:45;100414.40;;;13.20
65765;BMP180;52915;53.718;19.946;2022-09-09T12:44:53;100418.00;;;13.10
65765;BMP180;52915;53.718;19.946;2022-09-09T12:49:58;100412.40;;;13.02
65765;BMP180;52915;53.718;19.946;2022-09-09T12:55:06;100412.40;;;13.10
65765;BMP180;52915;53.718;19.946;2022-09-09T13:00:19;100414.80;;;13.00
65765;BMP180;52915;53.718;19.946;2022-09-09T13:05:37;100412.80;;;13.16
65765;BMP180;52915;53.718;19.946;2022-09-09T13:16:19;100411.60;;;13.00
65765;BMP180;52915;53.718;19.946;2022-09-09T13:21:43;100416.00;;;13.10
65765;BMP180;52915;53.718;19.946;2022-09-09T13:27:02;100410.60;;;13.10
65765;BMP180;52915;53.718;19.946;2022-09-09T13:32:17;100407.80;;;13.10
65765;BMP180;52915;53.718;19.946;2022-09-09T13:37:31;100405.60;;;13.16
65765;BMP180;52915;53.718;19.946;2022-09-09T13:42:41;100401.40;;;13.20
65765;BMP180;52915;53.718;19.946;2022-09-09T13:47:46;100403.20;;;13.30
65765;BMP180;52915;53.718;19.946;2022-09-09T13:52:57;100404.80;;;13.20
65765;BMP180;52915;53.718;19.946;2022-09-09T13:58:04;100401.60;;;13.30
65765;BMP180;52915;53.718;19.946;2022-09-09T14:03:09;100401.00;;;13.30
65765;BMP180;52915;53.718;19.946;2022-09-09T14:08:24;100396.20;;;13.34
65765;BMP180;52915;53.718;19.946;2022-09-09T14:13:28;100391.80;;;13.40
65765;BMP180;52915;53.718;19.946;2022-09-09T14:18:32;100395.60;;;13.30
65765;BMP180;52915;53.718;19.946;2022-09-09T14:23:38;100395.20;;;13.40
65765;BMP180;52915;53.718;19.946;2022-09-09T14:28:42;100406.20;;;13.40
65765;BMP180;52915;53.718;19.946;2022-09-09T14:33:59;100414.00;;;13.40
65765;BMP180;52915;53.718;19.946;2022-09-09T14:39:04;100422.00;;;13.30
65765;BMP180;52915;53.718;19.946;2022-09-09T14:44:08;100410.00;;;13.32
65765;BMP180;52915;53.718;19.946;2022-09-09T14:49:13;100415.20;;;13.36
65765;BMP180;52915;53.718;19.946;2022-09-09T14:54:18;100411.60;;;13.44
65765;BMP180;52915;53.718;19.946;2022-09-09T14:59:25;100411.40;;;13.50
65765;BMP180;52915;53.718;19.946;2022-09-09T15:04:30;100415.20;;;13.50
65765;BMP180;52915;53.718;19.946;2022-09-09T15:09:34;100425.20;;;13.50
65765;BMP180;52915;53.718;19.946;2022-09-09T15:14:41;100426.60;;;13.54
65765;BMP180;52915;53.718;19.946;2022-09-09T15:19:46;100421.40;;;13.50
65765;BMP180;52915;53.718;19.946;2022-09-09T15:24:50;100432.20;;;13.50
65765;BMP180;52915;53.718;19.946;2022-09-09T15:29:54;100429.40;;;13.40
65765;BMP180;52915;53.718;19.946;2022-09-09T15:34:58;100438.60;;;13.40
65765;BMP180;52915;53.718;19.946;2022-09-09T15:40:03;100444.80;;;13.50
65765;BMP180;52915;53.718;19.946;2022-09-09T15:45:08;100442.20;;;13.48
65765;BMP180;52915;53.718;19.946;2022-09-09T15:50:12;100445.80;;;13.50
65765;BMP180;52915;53.718;19.946;2022-09-09T15:55:17;100442.00;;;13.52
65765;BMP180;52915;53.718;19.946;2022-09-09T16:00:23;100442.00;;;13.48
65765;BMP180;52915;53.718;19.946;2022-09-09T16:05:33;100444.00;;;13.50
65765;BMP180;52915;53.718;19.946;2022-09-09T16:10:38;100443.00;;;13.60
65765;BMP180;52915;53.718;19.946;2022-09-09T16:15:55;100435.40;;;13.40
65765;BMP180;52915;53.718;19.946;2022-09-09T16:20:59;100436.60;;;13.40
65765;BMP180;52915;53.718;19.946;2022-09-09T16:26:14;100440.80;;;13.40
65765;BMP180;52915;53.718;19.946;2022-09-09T16:31:23;100430.00;;;13.40
65765;BMP180;52915;53.718;19.946;2022-09-09T16:36:33;100432.00;;;13.50
65765;BMP180;52915;53.718;19.946;2022-09-09T16:41:41;100430.80;;;13.48
65765;BMP180;52915;53.718;19.946;2022-09-09T16:46:47;100423.40;;;13.48
65765;BMP180;52915;53.718;19.946;2022-09-09T16:51:58;100431.20;;;13.38
65765;BMP180;52915;53.718;19.946;2022-09-09T16:57:06;100432.60;;;13.30
65765;BMP180;52915;53.718;19.946;2022-09-09T17:02:10;100436.80;;;13.30
65765;BMP180;52915;53.718;19.946;2022-09-09T17:07:16;100438.20;;;13.30
65765;BMP180;52915;53.718;19.946;2022-09-09T17:12:26;100436.80;;;13.30
65765;BMP180;52915;53.718;19.946;2022-09-09T17:17:37;100449.40;;;13.30
65765;BMP180;52915;53.718;19.946;2022-09-09T17:22:45;100449.60;;;13.10
65765;BMP180;52915;53.718;19.946;2022-09-09T17:27:49;100449.60;;;13.08
65765;BMP180;52915;53.718;19.946;2022-09-09T17:32:54;100460.00;;;13.00
65765;BMP180;52915;53.718;19.946;2022-09-09T17:38:00;100461.40;;;12.90
65765;BMP180;52915;53.718;19.946;2022-09-09T17:43:05;100470.00;;;12.80
65765;BMP180;52915;53.718;19.946;2022-09-09T17:48:10;100466.40;;;12.80
65765;BMP180;52915;53.718;19.946;2022-09-09T17:53:16;100482.80;;;12.80
65765;BMP180;52915;53.718;19.946;2022-09-09T17:58:22;100475.40;;;12.82
65765;BMP180;52915;53.718;19.946;2022-09-09T18:03:27;100486.20;;;12.80
65765;BMP180;52915;53.718;19.946;2022-09-09T18:08:46;100491.20;;;12.80
65765;BMP180;52915;53.718;19.946;2022-09-09T18:13:55;100490.00;;;12.86
65765;BMP180;52915;53.718;19.946;2022-09-09T18:19:06;100486.00;;;12.90
65765;BMP180;52915;53.718;19.946;2022-09-09T18:24:18;100484.80;;;12.80
65765;BMP180;52915;53.718;19.946;2022-09-09T18:29:25;100477.80;;;12.80
65765;BMP180;52915;53.718;19.946;2022-09-09T18:34:30;100480.80;;;12.80
65765;BMP180;52915;53.718;19.946;2022-09-09T18:39:36;100479.40;;;12.80
65765;BMP180;52915;53.718;19.946;2022-09-09T18:44:40;100483.00;;;12.80
65765;BMP180;52915;53.718;19.946;2022-09-09T18:49:47;100494.00;;;12.82
65765;BMP180;52915;53.718;19.946;2022-09-09T18:54:54;100489.40;;;12.80
65765;BMP180;52915;53.718;19.946;2022-09-09T18:59:58;100492.40;;;12.90
65765;BMP180;52915;53.718;19.946;2022-09-09T19:05:06;100497.00;;;12.80
65765;BMP180;52915;53.718;19.946;2022-09-09T19:10:11;100508.20;;;12.90
65765;BMP180;52915;53.718;19.946;2022-09-09T19:15:17;100509.00;;;12.82
65765;BMP180;52915;53.718;19.946;2022-09-09T19:20:21;100510.40;;;12.80
65765;BMP180;52915;53.718;19.946;2022-09-09T19:25:27;100514.40;;;12.80
65765;BMP180;52915;53.718;19.946;2022-09-09T19:30:36;100513.20;;;12.80
65765;BMP180;52915;53.718;19.946;2022-09-09T19:35:41;100508.20;;;12.80
65765;BMP180;52915;53.718;19.946;2022-09-09T19:40:49;100502.00;;;12.84
65765;BMP180;52915;53.718;19.946;2022-09-09T19:46:00;100500.20;;;12.80
65765;BMP180;52915;53.718;19.946;2022-09-09T19:51:18;100490.80;;;12.80
65765;BMP180;52915;53.718;19.946;2022-09-09T19:56:28;100485.80;;;12.80
65765;BMP180;52915;53.718;19.946;2022-09-09T20:01:37;100487.20;;;12.82
65765;BMP180;52915;53.718;19.946;2022-09-09T20:06:46;100482.80;;;12.90
65765;BMP180;52915;53.718;19.946;2022-09-09T20:11:52;100482.80;;;12.90
65765;BMP180;52915;53.718;19.946;2022-09-09T20:17:03;100483.60;;;12.90
65765;BMP180;52915;53.718;19.946;2022-09-09T20:22:16;100474.80;;;12.90
65765;BMP180;52915;53.718;19.946;2022-09-09T20:27:21;100471.40;;;12.80
65765;BMP180;52915;53.718;19.946;2022-09-09T20:32:27;100469.20;;;12.80
65765;BMP180;52915;53.718;19.946;2022-09-09T20:37:34;100472.60;;;12.90
65765;BMP180;52915;53.718;19.946;2022-09-09T20:42:38;100479.00;;;12.90
65765;BMP180;52915;53.718;19.946;2022-09-09T20:47:52;100482.80;;;12.90
65765;BMP180;52915;53.718;19.946;2022-09-09T20:53:06;100481.80;;;12.90
65765;BMP180;52915;53.718;19.946;2022-09-09T20:58:13;100482.80;;;12.84
65765;BMP180;52915;53.718;19.946;2022-09-09T21:03:20;100494.40;;;12.90
65765;BMP180;52915;53.718;19.946;2022-09-09T21:08:27;100491.00;;;12.90
65765;BMP180;52915;53.718;19.946;2022-09-09T21:13:35;100488.20;;;12.80
65765;BMP180;52915;53.718;19.946;2022-09-09T21:18:47;100495.60;;;12.80
65765;BMP180;52915;53.718;19.946;2022-09-09T21:23:57;100492.00;;;12.86
65765;BMP180;52915;53.718;19.946;2022-09-09T21:29:08;100491.00;;;12.88
65765;BMP180;52915;53.718;19.946;2022-09-09T21:34:13;100485.20;;;12.80
65765;BMP180;52915;53.718;19.946;2022-09-09T21:39:18;100489.80;;;12.82
65765;BMP180;52915;53.718;19.946;2022-09-09T21:44:22;100489.60;;;12.80
65765;BMP180;52915;53.718;19.946;2022-09-09T21:49:33;100492.00;;;12.70
65765;BMP180;52915;53.718;19.946;2022-09-09T21:54:37;100487.00;;;12.80
65765;BMP180;52915;53.718;19.946;2022-09-09T21:59:46;100480.60;;;12.72
65765;BMP180;52915;53.718;19.946;2022-09-09T22:04:51;100476.20;;;12.80
65765;BMP180;52915;53.718;19.946;2022-09-09T22:09:55;100486.00;;;12.90
65765;BMP180;52915;53.718;19.946;2022-09-09T22:15:00;100488.60;;;12.90
65765;BMP180;52915;53.718;19.946;2022-09-09T22:20:05;100489.80;;;12.82
65765;BMP180;52915;53.718;19.946;2022-09-09T22:25:10;100491.20;;;12.80
65765;BMP180;52915;53.718;19.946;2022-09-09T22:30:15;100487.40;;;12.76
65765;BMP180;52915;53.718;19.946;2022-09-09T22:35:19;100483.80;;;12.72
65765;BMP180;52915;53.718;19.946;2022-09-09T22:40:24;100477.40;;;12.70
65765;BMP180;52915;53.718;19.946;2022-09-09T22:45:31;100471.80;;;12.70
65765;BMP180;52915;53.718;19.946;2022-09-09T22:50:36;100465.60;;;12.80
65765;BMP180;52915;53.718;19.946;2022-09-09T22:56:00;100464.00;;;12.80
65765;BMP180;52915;53.718;19.946;2022-09-09T23:01:12;100465.00;;;12.80
65765;BMP180;52915;53.718;19.946;2022-09-09T23:06:22;100460.80;;;12.80
65765;BMP180;52915;53.718;19.946;2022-09-09T23:11:31;100456.40;;;12.80
65765;BMP180;52915;53.718;19.946;2022-09-09T23:16:44;100452.00;;;12.80
65765;BMP180;52915;53.718;19.946;2022-09-09T23:21:49;100446.00;;;12.80
65765;BMP180;52915;53.718;19.946;2022-09-09T23:26:53;100446.60;;;12.80
65765;BMP180;52915;53.718;19.946;2022-09-09T23:31:57;100441.80;;;12.90
65765;BMP180;52915;53.718;19.946;2022-09-09T23:37:01;100432.60;;;12.90
65765;BMP180;52915;53.718;19.946;2022-09-09T23:42:09;100430.40;;;12.74
65765;BMP180;52915;53.718;19.946;2022-09-09T23:47:13;100427.20;;;12.70
65765;BMP180;52915;53.718;19.946;2022-09-09T23:52:17;100430.40;;;12.64
65765;BMP180;52915;53.718;19.946;2022-09-09T23:57:22;100421.80;;;12.58
